PWSweather.com
Personal Weather Stations
Station Observations
KOHCLEVE171
Cleveland, OH

Cleveland, OH

Lat: 41.48646164, Lon: -81.46408081

Elevation: 1059

Station Type:

High Low Average
Temperature 25.0°F-3.9°C 13.1°F-10.5°C 16.8°F-8.4°C
Dew Point 22.6°F-5.2°C 2.1°F-16.6°C 8.5°F-13.1°C
Winds 10.3 mph 16.6 kmh 1.1 mph 1.8 kmh 3.0 mph ESE4.8 kmh ESE
Wind Gusts 19.0 mph30.6 kmh 1.6 mph2.6 kmh 6.0 mph9.7 kmh
Humidity 91% 61% 69%
Pressure 30.24 in1024.0 mb 29.93 in1013.5 mb -
Precipitation 0.00 in0.0 mm - -
Hour Temp Dew Point Humidity Winds Wind Gusts Pressure Precip Precip Rate Daily Precip Total
12:03 AM 25.3°F-3.7°C 21.4°F-5.9°C 85% 4.0 mph ENE6.4 kmh ENE 4.9 mph7.9 kmh 29.91 in1012.9 mb 0.00 in0.0 mm 0.00 in0.0 mm 0.17 in4.3 mm
12:08 AM 25.5°F-3.6°C 21.9°F-5.6°C 86% 3.8 mph ENE6.1 kmh ENE 4.7 mph7.6 kmh 29.91 in1012.9 mb 0.00 in0.0 mm 0.00 in0.0 mm 0.17 in4.3 mm
12:13 AM 25.5°F-3.6°C 21.9°F-5.6°C 86% 3.8 mph ENE6.1 kmh ENE 5.4 mph8.7 kmh 29.91 in1012.9 mb 0.00 in0.0 mm 0.00 in0.0 mm 0.17 in4.3 mm
12:18 AM 25.5°F-3.6°C 21.9°F-5.6°C 86% 2.9 mph NE4.7 kmh NE 3.8 mph6.1 kmh 29.91 in1012.9 mb 0.00 in0.0 mm 0.00 in0.0 mm 0.17 in4.3 mm
12:23 AM 25.3°F-3.7°C 22.3°F-5.4°C 88% 3.1 mph ENE5.0 kmh ENE 5.1 mph8.2 kmh 29.91 in1012.9 mb 0.00 in0.0 mm 0.00 in0.0 mm 0.17 in4.3 mm
12:28 AM 25.5°F-3.6°C 22.5°F-5.3°C 88% 2.5 mph NE4.0 kmh NE 3.6 mph5.8 kmh 29.91 in1012.9 mb 0.00 in0.0 mm 0.00 in0.0 mm 0.17 in4.3 mm
12:33 AM 25.5°F-3.6°C 22.8°F-5.1°C 89% 4.7 mph ENE7.6 kmh ENE 8.5 mph13.7 kmh 29.92 in1013.2 mb 0.00 in0.0 mm 0.00 in0.0 mm 0.17 in4.3 mm
12:38 AM 25.2°F-3.8°C 22.8°F-5.1°C 91% 2.9 mph NE4.7 kmh NE 4.0 mph6.4 kmh 29.92 in1013.2 mb 0.00 in0.0 mm 0.00 in0.0 mm 0.17 in4.3 mm
12:43 AM 25.2°F-3.8°C 22.8°F-5.1°C 91% 5.6 mph N9.0 kmh N 12.3 mph19.8 kmh 29.92 in1013.2 mb 0.00 in0.0 mm 0.00 in0.0 mm 0.17 in4.3 mm
12:48 AM 25.2°F-3.8°C 23.4°F-4.8°C 93% 3.1 mph ENE5.0 kmh ENE 4.9 mph7.9 kmh 29.92 in1013.2 mb 0.00 in0.0 mm 0.00 in0.0 mm 0.17 in4.3 mm
12:53 AM 25.2°F-3.8°C 22.8°F-5.1°C 91% 3.1 mph NE5.0 kmh NE 5.8 mph9.3 kmh 29.93 in1013.5 mb 0.00 in0.0 mm 0.00 in0.0 mm 0.17 in4.3 mm
01:03 AM 25.0°F-3.9°C 22.6°F-5.2°C 91% 2.7 mph NE4.3 kmh NE 3.6 mph5.8 kmh 29.93 in1013.5 mb 0.00 in0.0 mm 0.00 in0.0 mm 0.00 in0.0 mm
01:08 AM 25.0°F-3.9°C 22.5°F-5.3°C 90% 2.9 mph NE4.7 kmh NE 4.9 mph7.9 kmh 29.93 in1013.5 mb 0.00 in0.0 mm 0.00 in0.0 mm 0.00 in0.0 mm
01:13 AM 25.0°F-3.9°C 21.9°F-5.6°C 88% 3.1 mph NE5.0 kmh NE 6.7 mph10.8 kmh 29.93 in1013.5 mb 0.00 in0.0 mm 0.00 in0.0 mm 0.00 in0.0 mm
01:18 AM 25.0°F-3.9°C 20.8°F-6.2°C 84% 2.7 mph NE4.3 kmh NE 3.4 mph5.5 kmh 29.93 in1013.5 mb 0.00 in0.0 mm 0.00 in0.0 mm 0.00 in0.0 mm
01:23 AM 24.8°F-4.0°C 19.8°F-6.8°C 81% 3.8 mph NE6.1 kmh NE 6.7 mph10.8 kmh 29.93 in1013.5 mb 0.00 in0.0 mm 0.00 in0.0 mm 0.00 in0.0 mm
01:28 AM 24.8°F-4.0°C 19.6°F-6.9°C 80% 3.4 mph ENE5.5 kmh ENE 4.5 mph7.2 kmh 29.93 in1013.5 mb 0.00 in0.0 mm 0.00 in0.0 mm 0.00 in0.0 mm
01:33 AM 24.8°F-4.0°C 19.6°F-6.9°C 80% 2.5 mph NE4.0 kmh NE 5.6 mph9.0 kmh 29.94 in1013.9 mb 0.00 in0.0 mm 0.00 in0.0 mm 0.00 in0.0 mm
01:38 AM 24.6°F-4.1°C 19.4°F-7.0°C 80% 3.8 mph ENE6.1 kmh ENE 6.0 mph9.7 kmh 29.93 in1013.5 mb 0.00 in0.0 mm 0.00 in0.0 mm 0.00 in0.0 mm
01:43 AM 24.6°F-4.1°C 19.4°F-7.0°C 80% 2.9 mph ENE4.7 kmh ENE 4.3 mph6.9 kmh 29.94 in1013.9 mb 0.00 in0.0 mm 0.00 in0.0 mm 0.00 in0.0 mm
01:48 AM 24.4°F-4.2°C 19.2°F-7.1°C 80% 2.7 mph NE4.3 kmh NE 4.3 mph6.9 kmh 29.94 in1013.9 mb 0.00 in0.0 mm 0.00 in0.0 mm 0.00 in0.0 mm
01:53 AM 24.4°F-4.2°C 18.9°F-7.3°C 79% 3.4 mph NE5.5 kmh NE 6.3 mph10.1 kmh 29.94 in1013.9 mb 0.00 in0.0 mm 0.00 in0.0 mm 0.00 in0.0 mm
01:58 AM 24.4°F-4.2°C 18.9°F-7.3°C 79% 3.4 mph NE5.5 kmh NE 6.0 mph9.7 kmh 29.94 in1013.9 mb 0.00 in0.0 mm 0.00 in0.0 mm 0.00 in0.0 mm
02:03 AM 24.3°F-4.3°C 18.3°F-7.6°C 78% 3.4 mph NE5.5 kmh NE 5.4 mph8.7 kmh 29.94 in1013.9 mb 0.00 in0.0 mm 0.00 in0.0 mm 0.00 in0.0 mm
02:08 AM 24.1°F-4.4°C 17.6°F-8.0°C 76% 3.1 mph NE5.0 kmh NE 5.6 mph9.0 kmh 29.94 in1013.9 mb 0.00 in0.0 mm 0.00 in0.0 mm 0.00 in0.0 mm
02:13 AM 24.1°F-4.4°C 18.1°F-7.7°C 78% 4.3 mph ENE6.9 kmh ENE 6.7 mph10.8 kmh 29.94 in1013.9 mb 0.00 in0.0 mm 0.00 in0.0 mm 0.00 in0.0 mm
02:18 AM 23.9°F-4.5°C 18.0°F-7.8°C 78% 2.5 mph NE4.0 kmh NE 4.3 mph6.9 kmh 29.94 in1013.9 mb 0.00 in0.0 mm 0.00 in0.0 mm 0.00 in0.0 mm
02:23 AM 23.9°F-4.5°C 17.4°F-8.1°C 76% 2.5 mph NE4.0 kmh NE 4.0 mph6.4 kmh 29.94 in1013.9 mb 0.00 in0.0 mm 0.00 in0.0 mm 0.00 in0.0 mm
02:28 AM 23.7°F-4.6°C 16.9°F-8.4°C 75% 3.1 mph NE5.0 kmh NE 5.6 mph9.0 kmh 29.94 in1013.9 mb 0.00 in0.0 mm 0.00 in0.0 mm 0.00 in0.0 mm
02:33 AM 23.5°F-4.7°C 16.7°F-8.5°C 75% 3.6 mph NE5.8 kmh NE 7.4 mph11.9 kmh 29.95 in1014.2 mb 0.00 in0.0 mm 0.00 in0.0 mm 0.00 in0.0 mm
02:38 AM 23.5°F-4.7°C 16.7°F-8.5°C 75% 2.7 mph NE4.3 kmh NE 4.5 mph7.2 kmh 29.95 in1014.2 mb 0.00 in0.0 mm 0.00 in0.0 mm 0.00 in0.0 mm
02:43 AM 23.5°F-4.7°C 17.1°F-8.3°C 76% 3.6 mph NE5.8 kmh NE 6.9 mph11.1 kmh 29.95 in1014.2 mb 0.00 in0.0 mm 0.00 in0.0 mm 0.00 in0.0 mm
02:48 AM 23.4°F-4.8°C 16.5°F-8.6°C 75% 2.7 mph NE4.3 kmh NE 5.1 mph8.2 kmh 29.95 in1014.2 mb 0.00 in0.0 mm 0.00 in0.0 mm 0.00 in0.0 mm
02:53 AM 23.2°F-4.9°C 16.5°F-8.6°C 75% 3.1 mph NE5.0 kmh NE 5.8 mph9.3 kmh 29.95 in1014.2 mb 0.00 in0.0 mm 0.00 in0.0 mm 0.00 in0.0 mm
02:58 AM 23.2°F-4.9°C 16.5°F-8.6°C 75% 3.8 mph ENE6.1 kmh ENE 4.9 mph7.9 kmh 29.95 in1014.2 mb 0.00 in0.0 mm 0.00 in0.0 mm 0.00 in0.0 mm
03:03 AM 23.2°F-4.9°C 16.5°F-8.6°C 75% 4.3 mph ENE6.9 kmh ENE 5.6 mph9.0 kmh 29.95 in1014.2 mb 0.00 in0.0 mm 0.00 in0.0 mm 0.00 in0.0 mm
03:08 AM 23.0°F-5.0°C 16.0°F-8.9°C 74% 2.9 mph ENE4.7 kmh ENE 3.8 mph6.1 kmh 29.95 in1014.2 mb 0.00 in0.0 mm 0.00 in0.0 mm 0.00 in0.0 mm
03:13 AM 23.2°F-4.9°C 16.5°F-8.6°C 75% 4.5 mph ENE7.2 kmh ENE 8.1 mph13.0 kmh 29.95 in1014.2 mb 0.00 in0.0 mm 0.00 in0.0 mm 0.00 in0.0 mm
03:18 AM 23.2°F-4.9°C 16.5°F-8.6°C 75% 2.9 mph ENE4.7 kmh ENE 4.5 mph7.2 kmh 29.95 in1014.2 mb 0.00 in0.0 mm 0.00 in0.0 mm 0.00 in0.0 mm
03:23 AM 23.2°F-4.9°C 16.2°F-8.8°C 74% 2.9 mph ENE4.7 kmh ENE 4.3 mph6.9 kmh 29.95 in1014.2 mb 0.00 in0.0 mm 0.00 in0.0 mm 0.00 in0.0 mm
03:28 AM 23.4°F-4.8°C 16.3°F-8.7°C 74% 3.6 mph ENE5.8 kmh ENE 4.9 mph7.9 kmh 29.95 in1014.2 mb 0.00 in0.0 mm 0.00 in0.0 mm 0.00 in0.0 mm
03:33 AM 23.4°F-4.8°C 16.0°F-8.9°C 73% 3.6 mph ENE5.8 kmh ENE 4.7 mph7.6 kmh 29.95 in1014.2 mb 0.00 in0.0 mm 0.00 in0.0 mm 0.00 in0.0 mm
03:38 AM 23.4°F-4.8°C 16.0°F-8.9°C 73% 2.7 mph ENE4.3 kmh ENE 3.6 mph5.8 kmh 29.95 in1014.2 mb 0.00 in0.0 mm 0.00 in0.0 mm 0.00 in0.0 mm
03:43 AM 23.4°F-4.8°C 16.0°F-8.9°C 73% 2.9 mph ENE4.7 kmh ENE 5.6 mph9.0 kmh 29.95 in1014.2 mb 0.00 in0.0 mm 0.00 in0.0 mm 0.00 in0.0 mm
03:48 AM 23.5°F-4.7°C 16.2°F-8.8°C 73% 2.7 mph ENE4.3 kmh ENE 4.0 mph6.4 kmh 29.95 in1014.2 mb 0.00 in0.0 mm 0.00 in0.0 mm 0.00 in0.0 mm
03:53 AM 23.4°F-4.8°C 16.0°F-8.9°C 73% 4.5 mph ENE7.2 kmh ENE 6.0 mph9.7 kmh 29.95 in1014.2 mb 0.00 in0.0 mm 0.00 in0.0 mm 0.00 in0.0 mm
03:58 AM 23.5°F-4.7°C 16.2°F-8.8°C 73% 3.4 mph ENE5.5 kmh ENE 5.1 mph8.2 kmh 29.95 in1014.2 mb 0.00 in0.0 mm 0.00 in0.0 mm 0.00 in0.0 mm
04:03 AM 23.4°F-4.8°C 16.0°F-8.9°C 73% 3.1 mph E5.0 kmh E 4.7 mph7.6 kmh 29.96 in1014.6 mb 0.00 in0.0 mm 0.00 in0.0 mm 0.00 in0.0 mm
04:08 AM 23.4°F-4.8°C 16.0°F-8.9°C 73% 3.1 mph ENE5.0 kmh ENE 4.7 mph7.6 kmh 29.96 in1014.6 mb 0.00 in0.0 mm 0.00 in0.0 mm 0.00 in0.0 mm
04:13 AM 23.4°F-4.8°C 16.3°F-8.7°C 74% 2.7 mph NE4.3 kmh NE 3.4 mph5.5 kmh 29.96 in1014.6 mb 0.00 in0.0 mm 0.00 in0.0 mm 0.00 in0.0 mm
04:18 AM 23.4°F-4.8°C 16.5°F-8.6°C 75% 3.8 mph ENE6.1 kmh ENE 5.1 mph8.2 kmh 29.96 in1014.6 mb 0.00 in0.0 mm 0.00 in0.0 mm 0.00 in0.0 mm
04:23 AM 23.0°F-5.0°C 16.5°F-8.6°C 76% 4.3 mph E6.9 kmh E 5.8 mph9.3 kmh 29.96 in1014.6 mb 0.00 in0.0 mm 0.00 in0.0 mm 0.00 in0.0 mm
04:28 AM 23.0°F-5.0°C 17.2°F-8.2°C 78% 3.8 mph ENE6.1 kmh ENE 6.0 mph9.7 kmh 29.96 in1014.6 mb 0.00 in0.0 mm 0.00 in0.0 mm 0.00 in0.0 mm
04:33 AM 22.8°F-5.1°C 17.2°F-8.2°C 79% 4.3 mph ENE6.9 kmh ENE 4.9 mph7.9 kmh 29.96 in1014.6 mb 0.00 in0.0 mm 0.00 in0.0 mm 0.00 in0.0 mm
04:38 AM 23.0°F-5.0°C 17.4°F-8.1°C 79% 4.0 mph E6.4 kmh E 6.3 mph10.1 kmh 29.96 in1014.6 mb 0.00 in0.0 mm 0.00 in0.0 mm 0.00 in0.0 mm
04:43 AM 22.8°F-5.1°C 17.1°F-8.3°C 78% 4.0 mph NE6.4 kmh NE 5.8 mph9.3 kmh 29.96 in1014.6 mb 0.00 in0.0 mm 0.00 in0.0 mm 0.00 in0.0 mm
04:48 AM 22.8°F-5.1°C 17.1°F-8.3°C 78% 4.9 mph E7.9 kmh E 8.9 mph14.3 kmh 29.96 in1014.6 mb 0.00 in0.0 mm 0.00 in0.0 mm 0.00 in0.0 mm
04:53 AM 22.8°F-5.1°C 17.1°F-8.3°C 78% 3.8 mph ENE6.1 kmh ENE 5.6 mph9.0 kmh 29.96 in1014.6 mb 0.00 in0.0 mm 0.00 in0.0 mm 0.00 in0.0 mm
04:58 AM 22.6°F-5.2°C 16.2°F-8.8°C 76% 3.6 mph ENE5.8 kmh ENE 6.3 mph10.1 kmh 29.96 in1014.6 mb 0.00 in0.0 mm 0.00 in0.0 mm 0.00 in0.0 mm
05:03 AM 22.5°F-5.3°C 16.0°F-8.9°C 76% 2.9 mph ENE4.7 kmh ENE 4.5 mph7.2 kmh 29.96 in1014.6 mb 0.00 in0.0 mm 0.00 in0.0 mm 0.00 in0.0 mm
05:08 AM 22.3°F-5.4°C 15.8°F-9.0°C 76% 3.6 mph NE5.8 kmh NE 6.0 mph9.7 kmh 29.97 in1014.9 mb 0.00 in0.0 mm 0.00 in0.0 mm 0.00 in0.0 mm
05:13 AM 22.1°F-5.5°C 15.6°F-9.1°C 76% 4.5 mph ENE7.2 kmh ENE 6.7 mph10.8 kmh 29.97 in1014.9 mb 0.00 in0.0 mm 0.00 in0.0 mm 0.00 in0.0 mm
05:18 AM 22.1°F-5.5°C 15.4°F-9.2°C 75% 5.4 mph E8.7 kmh E 9.6 mph15.4 kmh 29.96 in1014.6 mb 0.00 in0.0 mm 0.00 in0.0 mm 0.00 in0.0 mm
05:23 AM 21.9°F-5.6°C 15.3°F-9.3°C 75% 2.2 mph N3.5 kmh N 5.4 mph8.7 kmh 29.97 in1014.9 mb 0.00 in0.0 mm 0.00 in0.0 mm 0.00 in0.0 mm
05:28 AM 21.7°F-5.7°C 15.1°F-9.4°C 75% 3.8 mph NE6.1 kmh NE 6.7 mph10.8 kmh 29.97 in1014.9 mb 0.00 in0.0 mm 0.00 in0.0 mm 0.00 in0.0 mm
05:33 AM 21.6°F-5.8°C 14.9°F-9.5°C 75% 3.1 mph NE5.0 kmh NE 8.5 mph13.7 kmh 29.97 in1014.9 mb 0.00 in0.0 mm 0.00 in0.0 mm 0.00 in0.0 mm
05:38 AM 21.4°F-5.9°C 14.7°F-9.6°C 75% 4.0 mph NNE6.4 kmh NNE 10.7 mph17.2 kmh 29.98 in1015.2 mb 0.00 in0.0 mm 0.00 in0.0 mm 0.00 in0.0 mm
05:43 AM 21.2°F-6.0°C 14.5°F-9.7°C 75% 7.4 mph ENE11.9 kmh ENE 12.5 mph20.1 kmh 29.98 in1015.2 mb 0.00 in0.0 mm 0.00 in0.0 mm 0.00 in0.0 mm
05:48 AM 20.8°F-6.2°C 14.5°F-9.7°C 76% 3.4 mph NE5.5 kmh NE 5.6 mph9.0 kmh 29.98 in1015.2 mb 0.00 in0.0 mm 0.00 in0.0 mm 0.00 in0.0 mm
05:53 AM 20.8°F-6.2°C 14.2°F-9.9°C 75% 5.4 mph NE8.7 kmh NE 6.9 mph11.1 kmh 29.98 in1015.2 mb 0.00 in0.0 mm 0.00 in0.0 mm 0.00 in0.0 mm
05:58 AM 20.7°F-6.3°C 14.0°F-10.0°C 75% 4.7 mph NE7.6 kmh NE 6.5 mph10.5 kmh 29.99 in1015.6 mb 0.00 in0.0 mm 0.00 in0.0 mm 0.00 in0.0 mm
06:03 AM 20.5°F-6.4°C 14.2°F-9.9°C 76% 4.0 mph NE6.4 kmh NE 6.5 mph10.5 kmh 29.99 in1015.6 mb 0.00 in0.0 mm 0.00 in0.0 mm 0.00 in0.0 mm
06:08 AM 20.3°F-6.5°C 13.6°F-10.2°C 75% 4.3 mph ENE6.9 kmh ENE 9.2 mph14.8 kmh 30.00 in1015.9 mb 0.00 in0.0 mm 0.00 in0.0 mm 0.00 in0.0 mm
06:13 AM 19.9°F-6.7°C 13.6°F-10.2°C 76% 4.0 mph ENE6.4 kmh ENE 6.7 mph10.8 kmh 30.00 in1015.9 mb 0.00 in0.0 mm 0.00 in0.0 mm 0.00 in0.0 mm
06:18 AM 19.9°F-6.7°C 14.2°F-9.9°C 78% 3.1 mph N5.0 kmh N 6.3 mph10.1 kmh 30.00 in1015.9 mb 0.00 in0.0 mm 0.00 in0.0 mm 0.00 in0.0 mm
06:23 AM 19.6°F-6.9°C 13.3°F-10.4°C 76% 4.9 mph E7.9 kmh E 10.3 mph16.6 kmh 30.00 in1015.9 mb 0.00 in0.0 mm 0.00 in0.0 mm 0.00 in0.0 mm
06:28 AM 19.6°F-6.9°C 13.8°F-10.1°C 78% 3.4 mph ENE5.5 kmh ENE 6.7 mph10.8 kmh 30.01 in1016.3 mb 0.00 in0.0 mm 0.00 in0.0 mm 0.00 in0.0 mm
06:33 AM 19.4°F-7.0°C 14.0°F-10.0°C 79% 2.0 mph NNE3.2 kmh NNE 5.8 mph9.3 kmh 30.01 in1016.3 mb 0.00 in0.0 mm 0.00 in0.0 mm 0.00 in0.0 mm
06:38 AM 19.0°F-7.2°C 13.6°F-10.2°C 79% 4.3 mph NE6.9 kmh NE 6.5 mph10.5 kmh 30.01 in1016.3 mb 0.00 in0.0 mm 0.00 in0.0 mm 0.00 in0.0 mm
06:43 AM 18.9°F-7.3°C 12.6°F-10.8°C 76% 3.4 mph E5.5 kmh E 6.7 mph10.8 kmh 30.01 in1016.3 mb 0.00 in0.0 mm 0.00 in0.0 mm 0.00 in0.0 mm
06:48 AM 18.9°F-7.3°C 12.2°F-11.0°C 75% 4.9 mph ENE7.9 kmh ENE 8.5 mph13.7 kmh 30.01 in1016.3 mb 0.00 in0.0 mm 0.00 in0.0 mm 0.00 in0.0 mm
06:53 AM 18.7°F-7.4°C 11.8°F-11.2°C 74% 5.4 mph NE8.7 kmh NE 19.0 mph30.6 kmh 30.01 in1016.3 mb 0.00 in0.0 mm 0.00 in0.0 mm 0.00 in0.0 mm
06:58 AM 18.5°F-7.5°C 11.7°F-11.3°C 74% 4.7 mph ENE7.6 kmh ENE 6.9 mph11.1 kmh 30.01 in1016.3 mb 0.00 in0.0 mm 0.00 in0.0 mm 0.00 in0.0 mm
07:03 AM 18.5°F-7.5°C 11.7°F-11.3°C 74% 7.6 mph ENE12.2 kmh ENE 10.5 mph16.9 kmh 30.02 in1016.6 mb 0.00 in0.0 mm 0.00 in0.0 mm 0.00 in0.0 mm
07:08 AM 18.3°F-7.6°C 11.7°F-11.3°C 75% 5.1 mph NE8.2 kmh NE 8.7 mph14.0 kmh 30.02 in1016.6 mb 0.00 in0.0 mm 0.00 in0.0 mm 0.00 in0.0 mm
07:13 AM 18.0°F-7.8°C 10.8°F-11.8°C 73% 3.4 mph ENE5.5 kmh ENE 7.6 mph12.2 kmh 30.03 in1016.9 mb 0.00 in0.0 mm 0.00 in0.0 mm 0.00 in0.0 mm
07:18 AM 17.6°F-8.0°C 10.4°F-12.0°C 73% 4.3 mph NE6.9 kmh NE 7.2 mph11.6 kmh 30.03 in1016.9 mb 0.00 in0.0 mm 0.00 in0.0 mm 0.00 in0.0 mm
07:23 AM 17.2°F-8.2°C 9.5°F-12.5°C 71% 4.7 mph NNE7.6 kmh NNE 9.6 mph15.4 kmh 30.04 in1017.3 mb 0.00 in0.0 mm 0.00 in0.0 mm 0.00 in0.0 mm
07:28 AM 17.1°F-8.3°C 9.3°F-12.6°C 71% 3.4 mph N5.5 kmh N 15.7 mph25.3 kmh 30.04 in1017.3 mb 0.00 in0.0 mm 0.00 in0.0 mm 0.00 in0.0 mm
07:33 AM 16.9°F-8.4°C 9.7°F-12.4°C 73% 5.8 mph NE9.3 kmh NE 8.5 mph13.7 kmh 30.04 in1017.3 mb 0.00 in0.0 mm 0.00 in0.0 mm 0.00 in0.0 mm
07:38 AM 16.3°F-8.7°C 9.1°F-12.7°C 73% 5.6 mph ENE9.0 kmh ENE 9.4 mph15.1 kmh 30.06 in1017.9 mb 0.00 in0.0 mm 0.00 in0.0 mm 0.00 in0.0 mm
07:43 AM 16.2°F-8.8°C 9.0°F-12.8°C 73% 4.3 mph E6.9 kmh E 6.9 mph11.1 kmh 30.06 in1017.9 mb 0.00 in0.0 mm 0.00 in0.0 mm 0.00 in0.0 mm
07:48 AM 15.8°F-9.0°C 8.6°F-13.0°C 73% 6.5 mph NE10.5 kmh NE 14.1 mph22.7 kmh 30.06 in1017.9 mb 0.00 in0.0 mm 0.00 in0.0 mm 0.00 in0.0 mm
07:53 AM 15.8°F-9.0°C 9.0°F-12.8°C 74% 5.1 mph NE8.2 kmh NE 11.2 mph18.0 kmh 30.07 in1018.3 mb 0.00 in0.0 mm 0.00 in0.0 mm 0.00 in0.0 mm
07:58 AM 15.6°F-9.1°C 8.8°F-12.9°C 74% 3.4 mph ENE5.5 kmh ENE 5.8 mph9.3 kmh 30.07 in1018.3 mb 0.00 in0.0 mm 0.00 in0.0 mm 0.00 in0.0 mm
08:03 AM 15.6°F-9.1°C 8.8°F-12.9°C 74% 5.1 mph ENE8.2 kmh ENE 9.2 mph14.8 kmh 30.07 in1018.3 mb 0.00 in0.0 mm 0.00 in0.0 mm 0.00 in0.0 mm
08:08 AM 15.4°F-9.2°C 8.6°F-13.0°C 74% 4.0 mph NE6.4 kmh NE 6.3 mph10.1 kmh 30.07 in1018.3 mb 0.00 in0.0 mm 0.00 in0.0 mm 0.00 in0.0 mm
08:13 AM 15.4°F-9.2°C 8.6°F-13.0°C 74% 3.8 mph NNE6.1 kmh NNE 6.0 mph9.7 kmh 30.07 in1018.3 mb 0.00 in0.0 mm 0.00 in0.0 mm 0.00 in0.0 mm
08:18 AM 15.6°F-9.1°C 8.8°F-12.9°C 74% 4.3 mph NNE6.9 kmh NNE 9.4 mph15.1 kmh 30.08 in1018.6 mb 0.00 in0.0 mm 0.00 in0.0 mm 0.00 in0.0 mm
08:23 AM 15.3°F-9.3°C 8.4°F-13.1°C 74% 4.3 mph E6.9 kmh E 6.7 mph10.8 kmh 30.08 in1018.6 mb 0.00 in0.0 mm 0.00 in0.0 mm 0.00 in0.0 mm
08:28 AM 14.9°F-9.5°C 8.1°F-13.3°C 74% 5.6 mph ENE9.0 kmh ENE 9.4 mph15.1 kmh 30.09 in1019.0 mb 0.00 in0.0 mm 0.00 in0.0 mm 0.00 in0.0 mm
08:33 AM 14.9°F-9.5°C 8.1°F-13.3°C 74% 3.6 mph NE5.8 kmh NE 8.3 mph13.4 kmh 30.09 in1019.0 mb 0.00 in0.0 mm 0.00 in0.0 mm 0.00 in0.0 mm
08:38 AM 14.7°F-9.6°C 8.2°F-13.2°C 75% 3.1 mph NNE5.0 kmh NNE 5.4 mph8.7 kmh 30.09 in1019.0 mb 0.00 in0.0 mm 0.00 in0.0 mm 0.00 in0.0 mm
08:43 AM 14.7°F-9.6°C 8.2°F-13.2°C 75% 3.1 mph NE5.0 kmh NE 5.1 mph8.2 kmh 30.09 in1019.0 mb 0.00 in0.0 mm 0.00 in0.0 mm 0.00 in0.0 mm
08:48 AM 14.7°F-9.6°C 8.6°F-13.0°C 76% 5.4 mph NNE8.7 kmh NNE 17.7 mph28.5 kmh 30.10 in1019.3 mb 0.00 in0.0 mm 0.00 in0.0 mm 0.00 in0.0 mm
08:53 AM 14.5°F-9.7°C 8.4°F-13.1°C 76% 5.1 mph E8.2 kmh E 7.6 mph12.2 kmh 30.10 in1019.3 mb 0.00 in0.0 mm 0.00 in0.0 mm 0.00 in0.0 mm
08:59 AM 14.9°F-9.5°C 8.8°F-12.9°C 76% 2.5 mph NE4.0 kmh NE 5.1 mph8.2 kmh 30.10 in1019.3 mb 0.00 in0.0 mm 0.00 in0.0 mm 0.00 in0.0 mm
09:04 AM 14.9°F-9.5°C 9.3°F-12.6°C 78% 3.1 mph ENE5.0 kmh ENE 5.1 mph8.2 kmh 30.11 in1019.6 mb 0.00 in0.0 mm 0.00 in0.0 mm 0.00 in0.0 mm
09:09 AM 14.7°F-9.6°C 9.7°F-12.4°C 80% 4.5 mph E7.2 kmh E 6.0 mph9.7 kmh 30.11 in1019.6 mb 0.00 in0.0 mm 0.00 in0.0 mm 0.00 in0.0 mm
09:14 AM 14.5°F-9.7°C 10.4°F-12.0°C 83% 7.4 mph ENE11.9 kmh ENE 12.5 mph20.1 kmh 30.11 in1019.6 mb 0.00 in0.0 mm 0.00 in0.0 mm 0.00 in0.0 mm
09:19 AM 14.2°F-9.9°C 10.0°F-12.2°C 83% 5.1 mph ENE8.2 kmh ENE 9.4 mph15.1 kmh 30.12 in1020.0 mb 0.00 in0.0 mm 0.00 in0.0 mm 0.00 in0.0 mm
09:23 AM 14.2°F-9.9°C 9.5°F-12.5°C 81% 4.0 mph NE6.4 kmh NE 7.8 mph12.6 kmh 30.12 in1020.0 mb 0.00 in0.0 mm 0.00 in0.0 mm 0.00 in0.0 mm
09:29 AM 14.2°F-9.9°C 8.8°F-12.9°C 79% 5.4 mph NE8.7 kmh NE 10.3 mph16.6 kmh 30.12 in1020.0 mb 0.00 in0.0 mm 0.00 in0.0 mm 0.00 in0.0 mm
09:34 AM 14.4°F-9.8°C 8.8°F-12.9°C 78% 3.8 mph NE6.1 kmh NE 6.9 mph11.1 kmh 30.13 in1020.3 mb 0.00 in0.0 mm 0.00 in0.0 mm 0.00 in0.0 mm
09:39 AM 14.2°F-9.9°C 8.1°F-13.3°C 76% 5.8 mph NE9.3 kmh NE 9.6 mph15.4 kmh 30.13 in1020.3 mb 0.00 in0.0 mm 0.00 in0.0 mm 0.00 in0.0 mm
09:44 AM 14.0°F-10.0°C 7.9°F-13.4°C 76% 6.0 mph ENE9.7 kmh ENE 10.5 mph16.9 kmh 30.14 in1020.7 mb 0.00 in0.0 mm 0.00 in0.0 mm 0.00 in0.0 mm
09:49 AM 13.6°F-10.2°C 7.2°F-13.8°C 75% 5.6 mph NE9.0 kmh NE 11.2 mph18.0 kmh 30.14 in1020.7 mb 0.00 in0.0 mm 0.00 in0.0 mm 0.00 in0.0 mm
09:54 AM 13.6°F-10.2°C 7.0°F-13.9°C 74% 4.5 mph ENE7.2 kmh ENE 8.5 mph13.7 kmh 30.14 in1020.7 mb 0.00 in0.0 mm 0.00 in0.0 mm 0.00 in0.0 mm
09:59 AM 13.8°F-10.1°C 7.0°F-13.9°C 74% 3.8 mph NE6.1 kmh NE 8.9 mph14.3 kmh 30.14 in1020.7 mb 0.00 in0.0 mm 0.00 in0.0 mm 0.00 in0.0 mm
10:04 AM 13.6°F-10.2°C 7.0°F-13.9°C 74% 4.3 mph NE6.9 kmh NE 6.9 mph11.1 kmh 30.14 in1020.7 mb 0.00 in0.0 mm 0.00 in0.0 mm 0.00 in0.0 mm
10:09 AM 13.6°F-10.2°C 7.0°F-13.9°C 74% 5.6 mph NE9.0 kmh NE 10.3 mph16.6 kmh 30.15 in1021.0 mb 0.00 in0.0 mm 0.00 in0.0 mm 0.00 in0.0 mm
10:14 AM 13.3°F-10.4°C 6.6°F-14.1°C 74% 4.5 mph E7.2 kmh E 7.6 mph12.2 kmh 30.15 in1021.0 mb 0.00 in0.0 mm 0.00 in0.0 mm 0.00 in0.0 mm
10:19 AM 13.3°F-10.4°C 6.3°F-14.3°C 73% 6.0 mph E9.7 kmh E 9.2 mph14.8 kmh 30.16 in1021.3 mb 0.00 in0.0 mm 0.00 in0.0 mm 0.00 in0.0 mm
10:24 AM 13.6°F-10.2°C 6.6°F-14.1°C 73% 5.8 mph E9.3 kmh E 9.2 mph14.8 kmh 30.16 in1021.3 mb 0.00 in0.0 mm 0.00 in0.0 mm 0.00 in0.0 mm
10:29 AM 13.5°F-10.3°C 6.4°F-14.2°C 73% 5.6 mph ENE9.0 kmh ENE 7.4 mph11.9 kmh 30.16 in1021.3 mb 0.00 in0.0 mm 0.00 in0.0 mm 0.00 in0.0 mm
10:34 AM 13.6°F-10.2°C 6.6°F-14.1°C 73% 7.8 mph E12.6 kmh E 16.3 mph26.2 kmh 30.17 in1021.7 mb 0.00 in0.0 mm 0.00 in0.0 mm 0.00 in0.0 mm
10:39 AM 13.6°F-10.2°C 7.0°F-13.9°C 74% 4.3 mph NE6.9 kmh NE 7.4 mph11.9 kmh 30.17 in1021.7 mb 0.00 in0.0 mm 0.00 in0.0 mm 0.00 in0.0 mm
10:44 AM 13.6°F-10.2°C 6.6°F-14.1°C 73% 3.1 mph ENE5.0 kmh ENE 7.2 mph11.6 kmh 30.17 in1021.7 mb 0.00 in0.0 mm 0.00 in0.0 mm 0.00 in0.0 mm
10:49 AM 13.5°F-10.3°C 6.4°F-14.2°C 73% 3.8 mph E6.1 kmh E 11.2 mph18.0 kmh 30.18 in1022.0 mb 0.00 in0.0 mm 0.00 in0.0 mm 0.00 in0.0 mm
10:54 AM 13.6°F-10.2°C 7.0°F-13.9°C 74% 7.2 mph ENE11.6 kmh ENE 14.3 mph23.0 kmh 30.18 in1022.0 mb 0.00 in0.0 mm 0.00 in0.0 mm 0.00 in0.0 mm
10:59 AM 13.3°F-10.4°C 5.7°F-14.6°C 71% 5.6 mph NE9.0 kmh NE 11.2 mph18.0 kmh 30.19 in1022.4 mb 0.00 in0.0 mm 0.00 in0.0 mm 0.00 in0.0 mm
11:04 AM 13.6°F-10.2°C 5.9°F-14.5°C 71% 3.8 mph ENE6.1 kmh ENE 8.1 mph13.0 kmh 30.19 in1022.4 mb 0.00 in0.0 mm 0.00 in0.0 mm 0.00 in0.0 mm
11:09 AM 14.2°F-9.9°C 6.4°F-14.2°C 71% 10.3 mph E16.6 kmh E 16.1 mph25.9 kmh 30.19 in1022.4 mb 0.00 in0.0 mm 0.00 in0.0 mm 0.00 in0.0 mm
11:14 AM 14.0°F-10.0°C 6.1°F-14.4°C 70% 8.9 mph ENE14.3 kmh ENE 14.3 mph23.0 kmh 30.19 in1022.4 mb 0.00 in0.0 mm 0.00 in0.0 mm 0.00 in0.0 mm
11:19 AM 14.0°F-10.0°C 6.1°F-14.4°C 70% 6.9 mph ENE11.1 kmh ENE 11.2 mph18.0 kmh 30.19 in1022.4 mb 0.00 in0.0 mm 0.00 in0.0 mm 0.00 in0.0 mm
11:24 AM 14.4°F-9.8°C 6.4°F-14.2°C 70% 9.2 mph ENE14.8 kmh ENE 12.1 mph19.5 kmh 30.19 in1022.4 mb 0.00 in0.0 mm 0.00 in0.0 mm 0.00 in0.0 mm
11:29 AM 14.0°F-10.0°C 5.7°F-14.6°C 69% 4.0 mph NE6.4 kmh NE 8.5 mph13.7 kmh 30.19 in1022.4 mb 0.00 in0.0 mm 0.00 in0.0 mm 0.00 in0.0 mm
11:34 AM 14.0°F-10.0°C 6.1°F-14.4°C 70% 6.3 mph ENE10.1 kmh ENE 11.2 mph18.0 kmh 30.20 in1022.7 mb 0.00 in0.0 mm 0.00 in0.0 mm 0.00 in0.0 mm
11:39 AM 14.4°F-9.8°C 6.4°F-14.2°C 70% 6.5 mph E10.5 kmh E 8.5 mph13.7 kmh 30.20 in1022.7 mb 0.00 in0.0 mm 0.00 in0.0 mm 0.00 in0.0 mm
11:44 AM 14.5°F-9.7°C 6.3°F-14.3°C 69% 8.1 mph ENE13.0 kmh ENE 12.3 mph19.8 kmh 30.20 in1022.7 mb 0.00 in0.0 mm 0.00 in0.0 mm 0.00 in0.0 mm
11:49 AM 14.7°F-9.6°C 6.4°F-14.2°C 69% 4.0 mph NE6.4 kmh NE 9.2 mph14.8 kmh 30.20 in1022.7 mb 0.00 in0.0 mm 0.00 in0.0 mm 0.00 in0.0 mm
11:54 AM 14.5°F-9.7°C 6.3°F-14.3°C 69% 6.7 mph ENE10.8 kmh ENE 10.1 mph16.3 kmh 30.21 in1023.0 mb 0.00 in0.0 mm 0.00 in0.0 mm 0.00 in0.0 mm
11:59 AM 14.7°F-9.6°C 6.4°F-14.2°C 69% 4.9 mph NE7.9 kmh NE 8.1 mph13.0 kmh 30.21 in1023.0 mb 0.00 in0.0 mm 0.00 in0.0 mm 0.00 in0.0 mm
12:04 PM 14.9°F-9.5°C 6.6°F-14.1°C 69% 7.4 mph E11.9 kmh E 9.2 mph14.8 kmh 30.21 in1023.0 mb 0.00 in0.0 mm 0.00 in0.0 mm 0.00 in0.0 mm
12:09 PM 15.1°F-9.4°C 6.4°F-14.2°C 68% 7.4 mph E11.9 kmh E 11.9 mph19.2 kmh 30.22 in1023.4 mb 0.00 in0.0 mm 0.00 in0.0 mm 0.00 in0.0 mm
12:14 PM 15.3°F-9.3°C 7.0°F-13.9°C 69% 7.4 mph ENE11.9 kmh ENE 12.1 mph19.5 kmh 30.22 in1023.4 mb 0.00 in0.0 mm 0.00 in0.0 mm 0.00 in0.0 mm
12:19 PM 15.3°F-9.3°C 7.2°F-13.8°C 70% 6.0 mph E9.7 kmh E 9.2 mph14.8 kmh 30.22 in1023.4 mb 0.00 in0.0 mm 0.00 in0.0 mm 0.00 in0.0 mm
12:24 PM 15.4°F-9.2°C 7.3°F-13.7°C 70% 4.7 mph NNE7.6 kmh NNE 10.7 mph17.2 kmh 30.22 in1023.4 mb 0.00 in0.0 mm 0.00 in0.0 mm 0.00 in0.0 mm
12:29 PM 15.4°F-9.2°C 6.8°F-14.0°C 68% 3.1 mph NE5.0 kmh NE 8.5 mph13.7 kmh 30.22 in1023.4 mb 0.00 in0.0 mm 0.00 in0.0 mm 0.00 in0.0 mm
12:34 PM 15.4°F-9.2°C 6.8°F-14.0°C 68% 4.9 mph NE7.9 kmh NE 9.2 mph14.8 kmh 30.22 in1023.4 mb 0.00 in0.0 mm 0.00 in0.0 mm 0.00 in0.0 mm
12:39 PM 15.3°F-9.3°C 6.6°F-14.1°C 68% 4.3 mph ENE6.9 kmh ENE 6.9 mph11.1 kmh 30.22 in1023.4 mb 0.00 in0.0 mm 0.00 in0.0 mm 0.00 in0.0 mm
12:44 PM 15.1°F-9.4°C 6.4°F-14.2°C 68% 6.0 mph ENE9.7 kmh ENE 9.6 mph15.4 kmh 30.23 in1023.7 mb 0.00 in0.0 mm 0.00 in0.0 mm 0.00 in0.0 mm
12:49 PM 15.1°F-9.4°C 6.4°F-14.2°C 68% 3.6 mph ENE5.8 kmh ENE 7.2 mph11.6 kmh 30.22 in1023.4 mb 0.00 in0.0 mm 0.00 in0.0 mm 0.00 in0.0 mm
12:54 PM 15.3°F-9.3°C 6.6°F-14.1°C 68% 3.6 mph ENE5.8 kmh ENE 5.6 mph9.0 kmh 30.22 in1023.4 mb 0.00 in0.0 mm 0.00 in0.0 mm 0.00 in0.0 mm
12:59 PM 15.4°F-9.2°C 6.8°F-14.0°C 68% 3.1 mph E5.0 kmh E 6.9 mph11.1 kmh 30.22 in1023.4 mb 0.00 in0.0 mm 0.00 in0.0 mm 0.00 in0.0 mm
01:04 PM 15.3°F-9.3°C 6.3°F-14.3°C 67% 4.9 mph E7.9 kmh E 7.2 mph11.6 kmh 30.22 in1023.4 mb 0.00 in0.0 mm 0.00 in0.0 mm 0.00 in0.0 mm
01:09 PM 15.3°F-9.3°C 5.5°F-14.7°C 65% 4.3 mph E6.9 kmh E 8.1 mph13.0 kmh 30.22 in1023.4 mb 0.00 in0.0 mm 0.00 in0.0 mm 0.00 in0.0 mm
01:14 PM 15.6°F-9.1°C 5.9°F-14.5°C 65% 3.6 mph E5.8 kmh E 9.6 mph15.4 kmh 30.22 in1023.4 mb 0.00 in0.0 mm 0.00 in0.0 mm 0.00 in0.0 mm
01:19 PM 15.6°F-9.1°C 6.6°F-14.1°C 67% 3.6 mph N5.8 kmh N 9.6 mph15.4 kmh 30.21 in1023.0 mb 0.00 in0.0 mm 0.00 in0.0 mm 0.00 in0.0 mm
01:24 PM 15.4°F-9.2°C 5.7°F-14.6°C 65% 2.0 mph NE3.2 kmh NE 2.9 mph4.7 kmh 30.21 in1023.0 mb 0.00 in0.0 mm 0.00 in0.0 mm 0.00 in0.0 mm
01:29 PM 15.6°F-9.1°C 6.6°F-14.1°C 67% 1.8 mph E2.9 kmh E 2.9 mph4.7 kmh 30.21 in1023.0 mb 0.00 in0.0 mm 0.00 in0.0 mm 0.00 in0.0 mm
01:34 PM 15.8°F-9.0°C 6.8°F-14.0°C 67% 3.1 mph ESE5.0 kmh ESE 8.1 mph13.0 kmh 30.21 in1023.0 mb 0.00 in0.0 mm 0.00 in0.0 mm 0.00 in0.0 mm
01:39 PM 16.0°F-8.9°C 6.3°F-14.3°C 65% 3.6 mph ESE5.8 kmh ESE 8.1 mph13.0 kmh 30.21 in1023.0 mb 0.00 in0.0 mm 0.00 in0.0 mm 0.00 in0.0 mm
01:44 PM 16.0°F-8.9°C 6.3°F-14.3°C 65% 2.9 mph E4.7 kmh E 5.4 mph8.7 kmh 30.21 in1023.0 mb 0.00 in0.0 mm 0.00 in0.0 mm 0.00 in0.0 mm
01:49 PM 16.0°F-8.9°C 6.3°F-14.3°C 65% 2.5 mph E4.0 kmh E 3.8 mph6.1 kmh 30.21 in1023.0 mb 0.00 in0.0 mm 0.00 in0.0 mm 0.00 in0.0 mm
01:54 PM 15.6°F-9.1°C 5.5°F-14.7°C 64% 2.2 mph ENE3.5 kmh ENE 6.0 mph9.7 kmh 30.21 in1023.0 mb 0.00 in0.0 mm 0.00 in0.0 mm 0.00 in0.0 mm
01:59 PM 15.8°F-9.0°C 5.7°F-14.6°C 64% 2.5 mph ESE4.0 kmh ESE 4.5 mph7.2 kmh 30.21 in1023.0 mb 0.00 in0.0 mm 0.00 in0.0 mm 0.00 in0.0 mm
02:04 PM 15.4°F-9.2°C 5.4°F-14.8°C 64% 2.5 mph ENE4.0 kmh ENE 6.3 mph10.1 kmh 30.21 in1023.0 mb 0.00 in0.0 mm 0.00 in0.0 mm 0.00 in0.0 mm
02:09 PM 15.8°F-9.0°C 5.7°F-14.6°C 64% 2.0 mph E3.2 kmh E 4.3 mph6.9 kmh 30.20 in1022.7 mb 0.00 in0.0 mm 0.00 in0.0 mm 0.00 in0.0 mm
02:14 PM 15.6°F-9.1°C 5.5°F-14.7°C 64% 3.1 mph SE5.0 kmh SE 5.6 mph9.0 kmh 30.21 in1023.0 mb 0.00 in0.0 mm 0.00 in0.0 mm 0.00 in0.0 mm
02:19 PM 15.6°F-9.1°C 5.9°F-14.5°C 65% 1.6 mph S2.6 kmh S 5.1 mph8.2 kmh 30.21 in1023.0 mb 0.00 in0.0 mm 0.00 in0.0 mm 0.00 in0.0 mm
02:24 PM 15.4°F-9.2°C 5.4°F-14.8°C 64% 3.1 mph SE5.0 kmh SE 7.4 mph11.9 kmh 30.21 in1023.0 mb 0.00 in0.0 mm 0.00 in0.0 mm 0.00 in0.0 mm
02:29 PM 15.4°F-9.2°C 5.4°F-14.8°C 64% 1.3 mph SE2.1 kmh SE 2.7 mph4.3 kmh 30.20 in1022.7 mb 0.00 in0.0 mm 0.00 in0.0 mm 0.00 in0.0 mm
02:34 PM 15.8°F-9.0°C 6.1°F-14.4°C 65% 1.1 mph SSW1.8 kmh SSW 4.0 mph6.4 kmh 30.20 in1022.7 mb 0.00 in0.0 mm 0.00 in0.0 mm 0.00 in0.0 mm
02:39 PM 15.6°F-9.1°C 5.2°F-14.9°C 63% 1.8 mph S2.9 kmh S 3.6 mph5.8 kmh 30.20 in1022.7 mb 0.00 in0.0 mm 0.00 in0.0 mm 0.00 in0.0 mm
02:44 PM 16.0°F-8.9°C 5.5°F-14.7°C 63% 1.8 mph NE2.9 kmh NE 4.3 mph6.9 kmh 30.20 in1022.7 mb 0.00 in0.0 mm 0.00 in0.0 mm 0.00 in0.0 mm
02:49 PM 15.8°F-9.0°C 5.4°F-14.8°C 63% 1.8 mph SSE2.9 kmh SSE 6.5 mph10.5 kmh 30.20 in1022.7 mb 0.00 in0.0 mm 0.00 in0.0 mm 0.00 in0.0 mm
02:54 PM 15.6°F-9.1°C 5.5°F-14.7°C 64% 1.3 mph S2.1 kmh S 8.3 mph13.4 kmh 30.20 in1022.7 mb 0.00 in0.0 mm 0.00 in0.0 mm 0.00 in0.0 mm
02:59 PM 15.6°F-9.1°C 5.2°F-14.9°C 63% 2.2 mph NNE3.5 kmh NNE 4.7 mph7.6 kmh 30.20 in1022.7 mb 0.00 in0.0 mm 0.00 in0.0 mm 0.00 in0.0 mm
03:04 PM 15.6°F-9.1°C 5.2°F-14.9°C 63% 1.8 mph N2.9 kmh N 5.1 mph8.2 kmh 30.20 in1022.7 mb 0.00 in0.0 mm 0.00 in0.0 mm 0.00 in0.0 mm
03:09 PM 15.6°F-9.1°C 5.2°F-14.9°C 63% 2.9 mph S4.7 kmh S 4.3 mph6.9 kmh 30.20 in1022.7 mb 0.00 in0.0 mm 0.00 in0.0 mm 0.00 in0.0 mm
03:14 PM 15.4°F-9.2°C 5.0°F-15.0°C 63% 2.2 mph S3.5 kmh S 5.6 mph9.0 kmh 30.20 in1022.7 mb 0.00 in0.0 mm 0.00 in0.0 mm 0.00 in0.0 mm
03:19 PM 15.6°F-9.1°C 5.2°F-14.9°C 63% 1.6 mph S2.6 kmh S 4.7 mph7.6 kmh 30.20 in1022.7 mb 0.00 in0.0 mm 0.00 in0.0 mm 0.00 in0.0 mm
03:24 PM 15.8°F-9.0°C 5.4°F-14.8°C 63% 1.3 mph SSW2.1 kmh SSW 4.7 mph7.6 kmh 30.20 in1022.7 mb 0.00 in0.0 mm 0.00 in0.0 mm 0.00 in0.0 mm
03:29 PM 15.6°F-9.1°C 5.2°F-14.9°C 63% 2.5 mph S4.0 kmh S 6.5 mph10.5 kmh 30.19 in1022.4 mb 0.00 in0.0 mm 0.00 in0.0 mm 0.00 in0.0 mm
03:34 PM 15.8°F-9.0°C 5.4°F-14.8°C 63% 2.5 mph SE4.0 kmh SE 6.3 mph10.1 kmh 30.19 in1022.4 mb 0.00 in0.0 mm 0.00 in0.0 mm 0.00 in0.0 mm
03:39 PM 15.6°F-9.1°C 5.2°F-14.9°C 63% 2.0 mph E3.2 kmh E 4.7 mph7.6 kmh 30.20 in1022.7 mb 0.00 in0.0 mm 0.00 in0.0 mm 0.00 in0.0 mm
03:44 PM 16.0°F-8.9°C 5.9°F-14.5°C 64% 1.3 mph S2.1 kmh S 4.9 mph7.9 kmh 30.20 in1022.7 mb 0.00 in0.0 mm 0.00 in0.0 mm 0.00 in0.0 mm
03:49 PM 15.6°F-9.1°C 5.2°F-14.9°C 63% 2.0 mph ENE3.2 kmh ENE 4.5 mph7.2 kmh 30.21 in1023.0 mb 0.00 in0.0 mm 0.00 in0.0 mm 0.00 in0.0 mm
03:54 PM 15.4°F-9.2°C 5.0°F-15.0°C 63% 2.0 mph S3.2 kmh S 3.4 mph5.5 kmh 30.21 in1023.0 mb 0.00 in0.0 mm 0.00 in0.0 mm 0.00 in0.0 mm
03:59 PM 15.3°F-9.3°C 5.0°F-15.0°C 63% 2.0 mph S3.2 kmh S 4.0 mph6.4 kmh 30.21 in1023.0 mb 0.00 in0.0 mm 0.00 in0.0 mm 0.00 in0.0 mm
04:04 PM 15.3°F-9.3°C 5.0°F-15.0°C 63% 2.2 mph SSW3.5 kmh SSW 7.4 mph11.9 kmh 30.21 in1023.0 mb 0.00 in0.0 mm 0.00 in0.0 mm 0.00 in0.0 mm
04:09 PM 15.4°F-9.2°C 5.0°F-15.0°C 63% 1.6 mph SSE2.6 kmh SSE 5.6 mph9.0 kmh 30.22 in1023.4 mb 0.00 in0.0 mm 0.00 in0.0 mm 0.00 in0.0 mm
04:14 PM 15.3°F-9.3°C 5.0°F-15.0°C 63% 1.8 mph SE2.9 kmh SE 4.3 mph6.9 kmh 30.22 in1023.4 mb 0.00 in0.0 mm 0.00 in0.0 mm 0.00 in0.0 mm
04:19 PM 15.4°F-9.2°C 5.0°F-15.0°C 63% 1.8 mph S2.9 kmh S 4.0 mph6.4 kmh 30.21 in1023.0 mb 0.00 in0.0 mm 0.00 in0.0 mm 0.00 in0.0 mm
04:24 PM 15.4°F-9.2°C 5.0°F-15.0°C 63% 2.0 mph S3.2 kmh S 4.9 mph7.9 kmh 30.21 in1023.0 mb 0.00 in0.0 mm 0.00 in0.0 mm 0.00 in0.0 mm
04:29 PM 15.4°F-9.2°C 5.0°F-15.0°C 63% 2.2 mph SSE3.5 kmh SSE 5.1 mph8.2 kmh 30.21 in1023.0 mb 0.00 in0.0 mm 0.00 in0.0 mm 0.00 in0.0 mm
04:34 PM 15.3°F-9.3°C 5.0°F-15.0°C 63% 1.1 mph SE1.8 kmh SE 2.2 mph3.5 kmh 30.22 in1023.4 mb 0.00 in0.0 mm 0.00 in0.0 mm 0.00 in0.0 mm
04:39 PM 15.6°F-9.1°C 5.2°F-14.9°C 63% 1.8 mph ESE2.9 kmh ESE 4.0 mph6.4 kmh 30.22 in1023.4 mb 0.00 in0.0 mm 0.00 in0.0 mm 0.00 in0.0 mm
04:44 PM 15.4°F-9.2°C 5.0°F-15.0°C 63% 3.8 mph SSW6.1 kmh SSW 6.5 mph10.5 kmh 30.22 in1023.4 mb 0.00 in0.0 mm 0.00 in0.0 mm 0.00 in0.0 mm
04:49 PM 15.3°F-9.3°C 5.0°F-15.0°C 63% 3.8 mph SSW6.1 kmh SSW 6.7 mph10.8 kmh 30.22 in1023.4 mb 0.00 in0.0 mm 0.00 in0.0 mm 0.00 in0.0 mm
04:54 PM 15.1°F-9.4°C 4.8°F-15.1°C 63% 2.0 mph SSW3.2 kmh SSW 3.6 mph5.8 kmh 30.21 in1023.0 mb 0.00 in0.0 mm 0.00 in0.0 mm 0.00 in0.0 mm
04:59 PM 15.1°F-9.4°C 4.8°F-15.1°C 63% 3.4 mph SSW5.5 kmh SSW 8.1 mph13.0 kmh 30.22 in1023.4 mb 0.00 in0.0 mm 0.00 in0.0 mm 0.00 in0.0 mm
05:04 PM 14.9°F-9.5°C 4.6°F-15.2°C 63% 2.2 mph S3.5 kmh S 3.8 mph6.1 kmh 30.21 in1023.0 mb 0.00 in0.0 mm 0.00 in0.0 mm 0.00 in0.0 mm
05:09 PM 15.1°F-9.4°C 4.8°F-15.1°C 63% 1.8 mph S2.9 kmh S 3.1 mph5.0 kmh 30.21 in1023.0 mb 0.00 in0.0 mm 0.00 in0.0 mm 0.00 in0.0 mm
05:14 PM 14.9°F-9.5°C 4.6°F-15.2°C 63% 3.4 mph S5.5 kmh S 6.0 mph9.7 kmh 30.22 in1023.4 mb 0.00 in0.0 mm 0.00 in0.0 mm 0.00 in0.0 mm
05:19 PM 14.9°F-9.5°C 3.9°F-15.6°C 61% 3.1 mph S5.0 kmh S 7.6 mph12.2 kmh 30.22 in1023.4 mb 0.00 in0.0 mm 0.00 in0.0 mm 0.00 in0.0 mm
05:24 PM 14.7°F-9.6°C 3.7°F-15.7°C 61% 2.9 mph S4.7 kmh S 5.1 mph8.2 kmh 30.22 in1023.4 mb 0.00 in0.0 mm 0.00 in0.0 mm 0.00 in0.0 mm
05:29 PM 14.9°F-9.5°C 3.9°F-15.6°C 61% 1.6 mph SE2.6 kmh SE 4.3 mph6.9 kmh 30.22 in1023.4 mb 0.00 in0.0 mm 0.00 in0.0 mm 0.00 in0.0 mm
05:34 PM 14.9°F-9.5°C 4.6°F-15.2°C 63% 3.1 mph S5.0 kmh S 6.3 mph10.1 kmh 30.22 in1023.4 mb 0.00 in0.0 mm 0.00 in0.0 mm 0.00 in0.0 mm
05:39 PM 14.7°F-9.6°C 3.7°F-15.7°C 61% 1.6 mph SE2.6 kmh SE 3.6 mph5.8 kmh 30.21 in1023.0 mb 0.00 in0.0 mm 0.00 in0.0 mm 0.00 in0.0 mm
05:44 PM 14.9°F-9.5°C 4.6°F-15.2°C 63% 2.9 mph SW4.7 kmh SW 4.9 mph7.9 kmh 30.21 in1023.0 mb 0.00 in0.0 mm 0.00 in0.0 mm 0.00 in0.0 mm
05:49 PM 14.5°F-9.7°C 3.6°F-15.8°C 61% 3.4 mph SSW5.5 kmh SSW 6.3 mph10.1 kmh 30.22 in1023.4 mb 0.00 in0.0 mm 0.00 in0.0 mm 0.00 in0.0 mm
05:54 PM 14.4°F-9.8°C 3.4°F-15.9°C 61% 3.6 mph SSW5.8 kmh SSW 4.9 mph7.9 kmh 30.22 in1023.4 mb 0.00 in0.0 mm 0.00 in0.0 mm 0.00 in0.0 mm
05:59 PM 14.2°F-9.9°C 3.2°F-16.0°C 61% 2.7 mph SSW4.3 kmh SSW 5.4 mph8.7 kmh 30.21 in1023.0 mb 0.00 in0.0 mm 0.00 in0.0 mm 0.00 in0.0 mm
06:04 PM 14.0°F-10.0°C 3.0°F-16.1°C 61% 2.5 mph S4.0 kmh S 4.5 mph7.2 kmh 30.21 in1023.0 mb 0.00 in0.0 mm 0.00 in0.0 mm 0.00 in0.0 mm
06:09 PM 14.0°F-10.0°C 3.0°F-16.1°C 61% 1.8 mph SSE2.9 kmh SSE 5.8 mph9.3 kmh 30.21 in1023.0 mb 0.00 in0.0 mm 0.00 in0.0 mm 0.00 in0.0 mm
06:14 PM 14.0°F-10.0°C 3.0°F-16.1°C 61% 1.3 mph SSE2.1 kmh SSE 2.7 mph4.3 kmh 30.21 in1023.0 mb 0.00 in0.0 mm 0.00 in0.0 mm 0.00 in0.0 mm
06:19 PM 14.2°F-9.9°C 3.9°F-15.6°C 63% 3.4 mph SSW5.5 kmh SSW 5.6 mph9.0 kmh 30.21 in1023.0 mb 0.00 in0.0 mm 0.00 in0.0 mm 0.00 in0.0 mm
06:24 PM 14.0°F-10.0°C 3.0°F-16.1°C 61% 3.8 mph S6.1 kmh S 8.1 mph13.0 kmh 30.20 in1022.7 mb 0.00 in0.0 mm 0.00 in0.0 mm 0.00 in0.0 mm
06:29 PM 13.8°F-10.1°C 2.8°F-16.2°C 61% 3.1 mph S5.0 kmh S 8.1 mph13.0 kmh 30.20 in1022.7 mb 0.00 in0.0 mm 0.00 in0.0 mm 0.00 in0.0 mm
06:34 PM 13.6°F-10.2°C 2.7°F-16.3°C 61% 2.9 mph SSW4.7 kmh SSW 6.3 mph10.1 kmh 30.20 in1022.7 mb 0.00 in0.0 mm 0.00 in0.0 mm 0.00 in0.0 mm
06:39 PM 13.5°F-10.3°C 2.5°F-16.4°C 61% 1.8 mph S2.9 kmh S 3.4 mph5.5 kmh 30.20 in1022.7 mb 0.00 in0.0 mm 0.00 in0.0 mm 0.00 in0.0 mm
06:44 PM 13.5°F-10.3°C 2.5°F-16.4°C 61% 2.7 mph SSW4.3 kmh SSW 6.0 mph9.7 kmh 30.20 in1022.7 mb 0.00 in0.0 mm 0.00 in0.0 mm 0.00 in0.0 mm
06:49 PM 13.3°F-10.4°C 2.3°F-16.5°C 61% 3.1 mph SW5.0 kmh SW 6.7 mph10.8 kmh 30.21 in1023.0 mb 0.00 in0.0 mm 0.00 in0.0 mm 0.00 in0.0 mm
06:54 PM 13.3°F-10.4°C 2.3°F-16.5°C 61% 1.1 mph NW1.8 kmh NW 2.7 mph4.3 kmh 30.21 in1023.0 mb 0.00 in0.0 mm 0.00 in0.0 mm 0.00 in0.0 mm
06:59 PM 13.5°F-10.3°C 2.5°F-16.4°C 61% 3.1 mph SSW5.0 kmh SSW 4.9 mph7.9 kmh 30.22 in1023.4 mb 0.00 in0.0 mm 0.00 in0.0 mm 0.00 in0.0 mm
07:04 PM 13.5°F-10.3°C 2.5°F-16.4°C 61% 1.6 mph S2.6 kmh S 2.7 mph4.3 kmh 30.22 in1023.4 mb 0.00 in0.0 mm 0.00 in0.0 mm 0.00 in0.0 mm
07:09 PM 13.5°F-10.3°C 2.5°F-16.4°C 61% 4.5 mph S7.2 kmh S 8.3 mph13.4 kmh 30.21 in1023.0 mb 0.00 in0.0 mm 0.00 in0.0 mm 0.00 in0.0 mm
07:14 PM 13.5°F-10.3°C 2.5°F-16.4°C 61% 2.7 mph S4.3 kmh S 6.5 mph10.5 kmh 30.21 in1023.0 mb 0.00 in0.0 mm 0.00 in0.0 mm 0.00 in0.0 mm
07:19 PM 13.5°F-10.3°C 3.2°F-16.0°C 63% 2.9 mph S4.7 kmh S 6.9 mph11.1 kmh 30.21 in1023.0 mb 0.00 in0.0 mm 0.00 in0.0 mm 0.00 in0.0 mm
07:24 PM 13.5°F-10.3°C 2.5°F-16.4°C 61% 2.5 mph SSW4.0 kmh SSW 4.7 mph7.6 kmh 30.22 in1023.4 mb 0.00 in0.0 mm 0.00 in0.0 mm 0.00 in0.0 mm
07:29 PM 13.5°F-10.3°C 2.5°F-16.4°C 61% 3.1 mph S5.0 kmh S 6.0 mph9.7 kmh 30.21 in1023.0 mb 0.00 in0.0 mm 0.00 in0.0 mm 0.00 in0.0 mm
07:34 PM 13.5°F-10.3°C 2.5°F-16.4°C 61% 6.0 mph SW9.7 kmh SW 11.2 mph18.0 kmh 30.21 in1023.0 mb 0.00 in0.0 mm 0.00 in0.0 mm 0.00 in0.0 mm
07:39 PM 13.5°F-10.3°C 2.5°F-16.4°C 61% 1.1 mph SSE1.8 kmh SSE 2.9 mph4.7 kmh 30.22 in1023.4 mb 0.00 in0.0 mm 0.00 in0.0 mm 0.00 in0.0 mm
07:44 PM 13.5°F-10.3°C 2.5°F-16.4°C 61% 4.0 mph S6.4 kmh S 6.3 mph10.1 kmh 30.22 in1023.4 mb 0.00 in0.0 mm 0.00 in0.0 mm 0.00 in0.0 mm
07:49 PM 13.5°F-10.3°C 2.5°F-16.4°C 61% 3.8 mph S6.1 kmh S 7.6 mph12.2 kmh 30.22 in1023.4 mb 0.00 in0.0 mm 0.00 in0.0 mm 0.00 in0.0 mm
07:54 PM 13.5°F-10.3°C 3.2°F-16.0°C 63% 4.9 mph S7.9 kmh S 8.9 mph14.3 kmh 30.22 in1023.4 mb 0.00 in0.0 mm 0.00 in0.0 mm 0.00 in0.0 mm
07:59 PM 13.5°F-10.3°C 3.2°F-16.0°C 63% 2.2 mph S3.5 kmh S 3.4 mph5.5 kmh 30.23 in1023.7 mb 0.00 in0.0 mm 0.00 in0.0 mm 0.00 in0.0 mm
08:04 PM 13.1°F-10.5°C 2.1°F-16.6°C 61% 1.3 mph S2.1 kmh S 2.5 mph4.0 kmh 30.23 in1023.7 mb 0.00 in0.0 mm 0.00 in0.0 mm 0.00 in0.0 mm
08:09 PM 13.3°F-10.4°C 3.0°F-16.1°C 63% 2.5 mph S4.0 kmh S 4.7 mph7.6 kmh 30.23 in1023.7 mb 0.00 in0.0 mm 0.00 in0.0 mm 0.00 in0.0 mm
08:14 PM 13.5°F-10.3°C 3.2°F-16.0°C 63% 2.2 mph S3.5 kmh S 3.4 mph5.5 kmh 30.23 in1023.7 mb 0.00 in0.0 mm 0.00 in0.0 mm 0.00 in0.0 mm
08:19 PM 13.6°F-10.2°C 3.4°F-15.9°C 63% 3.8 mph S6.1 kmh S 6.9 mph11.1 kmh 30.23 in1023.7 mb 0.00 in0.0 mm 0.00 in0.0 mm 0.00 in0.0 mm
08:24 PM 13.3°F-10.4°C 3.0°F-16.1°C 63% 3.8 mph S6.1 kmh S 6.5 mph10.5 kmh 30.24 in1024.0 mb 0.00 in0.0 mm 0.00 in0.0 mm 0.00 in0.0 mm
08:29 PM 13.3°F-10.4°C 3.0°F-16.1°C 63% 1.3 mph SSE2.1 kmh SSE 3.1 mph5.0 kmh 30.24 in1024.0 mb 0.00 in0.0 mm 0.00 in0.0 mm 0.00 in0.0 mm
08:34 PM 13.3°F-10.4°C 3.0°F-16.1°C 63% 3.4 mph S5.5 kmh S 7.6 mph12.2 kmh 30.24 in1024.0 mb 0.00 in0.0 mm 0.00 in0.0 mm 0.00 in0.0 mm
08:39 PM 13.3°F-10.4°C 3.0°F-16.1°C 63% 2.0 mph S3.2 kmh S 2.7 mph4.3 kmh 30.24 in1024.0 mb 0.00 in0.0 mm 0.00 in0.0 mm 0.00 in0.0 mm
08:44 PM 13.1°F-10.5°C 2.8°F-16.2°C 63% 4.3 mph SSW6.9 kmh SSW 6.3 mph10.1 kmh 30.24 in1024.0 mb 0.00 in0.0 mm 0.00 in0.0 mm 0.00 in0.0 mm
08:49 PM 13.1°F-10.5°C 2.8°F-16.2°C 63% 2.5 mph SE4.0 kmh SE 4.3 mph6.9 kmh 30.24 in1024.0 mb 0.00 in0.0 mm 0.00 in0.0 mm 0.00 in0.0 mm
08:54 PM 13.3°F-10.4°C 3.0°F-16.1°C 63% 1.8 mph S2.9 kmh S 3.8 mph6.1 kmh 30.24 in1024.0 mb 0.00 in0.0 mm 0.00 in0.0 mm 0.00 in0.0 mm
08:59 PM 13.5°F-10.3°C 3.2°F-16.0°C 63% 2.5 mph S4.0 kmh S 5.6 mph9.0 kmh 30.24 in1024.0 mb 0.00 in0.0 mm 0.00 in0.0 mm 0.00 in0.0 mm
09:04 PM 13.5°F-10.3°C 3.6°F-15.8°C 64% 2.2 mph SSE3.5 kmh SSE 3.8 mph6.1 kmh 30.23 in1023.7 mb 0.00 in0.0 mm 0.00 in0.0 mm 0.00 in0.0 mm
09:09 PM 13.6°F-10.2°C 3.7°F-15.7°C 64% 2.7 mph S4.3 kmh S 4.3 mph6.9 kmh 30.23 in1023.7 mb 0.00 in0.0 mm 0.00 in0.0 mm 0.00 in0.0 mm
09:14 PM 13.8°F-10.1°C 4.3°F-15.4°C 65% 2.9 mph SSW4.7 kmh SSW 4.7 mph7.6 kmh 30.23 in1023.7 mb 0.00 in0.0 mm 0.00 in0.0 mm 0.00 in0.0 mm
09:19 PM 14.0°F-10.0°C 4.1°F-15.5°C 64% 2.9 mph S4.7 kmh S 5.6 mph9.0 kmh 30.23 in1023.7 mb 0.00 in0.0 mm 0.00 in0.0 mm 0.00 in0.0 mm
09:24 PM 14.2°F-9.9°C 4.6°F-15.2°C 65% 3.1 mph SW5.0 kmh SW 5.6 mph9.0 kmh 30.23 in1023.7 mb 0.00 in0.0 mm 0.00 in0.0 mm 0.00 in0.0 mm
09:29 PM 14.0°F-10.0°C 4.1°F-15.5°C 64% 2.5 mph SSW4.0 kmh SSW 4.9 mph7.9 kmh 30.23 in1023.7 mb 0.00 in0.0 mm 0.00 in0.0 mm 0.00 in0.0 mm
09:34 PM 14.2°F-9.9°C 4.3°F-15.4°C 64% 2.2 mph S3.5 kmh S 3.6 mph5.8 kmh 30.22 in1023.4 mb 0.00 in0.0 mm 0.00 in0.0 mm 0.00 in0.0 mm
09:39 PM 14.5°F-9.7°C 4.8°F-15.1°C 65% 1.3 mph S2.1 kmh S 3.4 mph5.5 kmh 30.22 in1023.4 mb 0.00 in0.0 mm 0.00 in0.0 mm 0.00 in0.0 mm
09:44 PM 14.5°F-9.7°C 4.8°F-15.1°C 65% 3.6 mph S5.8 kmh S 7.2 mph11.6 kmh 30.22 in1023.4 mb 0.00 in0.0 mm 0.00 in0.0 mm 0.00 in0.0 mm
09:49 PM 14.5°F-9.7°C 4.8°F-15.1°C 65% 2.0 mph S3.2 kmh S 3.4 mph5.5 kmh 30.22 in1023.4 mb 0.00 in0.0 mm 0.00 in0.0 mm 0.00 in0.0 mm
09:54 PM 14.7°F-9.6°C 5.0°F-15.0°C 65% 2.0 mph SE3.2 kmh SE 3.1 mph5.0 kmh 30.23 in1023.7 mb 0.00 in0.0 mm 0.00 in0.0 mm 0.00 in0.0 mm
09:59 PM 14.7°F-9.6°C 5.0°F-15.0°C 65% 1.8 mph S2.9 kmh S 3.6 mph5.8 kmh 30.23 in1023.7 mb 0.00 in0.0 mm 0.00 in0.0 mm 0.00 in0.0 mm
10:04 PM 14.7°F-9.6°C 5.0°F-15.0°C 65% 1.6 mph SE2.6 kmh SE 2.7 mph4.3 kmh 30.23 in1023.7 mb 0.00 in0.0 mm 0.00 in0.0 mm 0.00 in0.0 mm
10:09 PM 14.9°F-9.5°C 5.2°F-14.9°C 65% 4.0 mph SSW6.4 kmh SSW 6.3 mph10.1 kmh 30.23 in1023.7 mb 0.00 in0.0 mm 0.00 in0.0 mm 0.00 in0.0 mm
10:14 PM 14.7°F-9.6°C 5.0°F-15.0°C 65% 1.8 mph SSE2.9 kmh SSE 3.1 mph5.0 kmh 30.23 in1023.7 mb 0.00 in0.0 mm 0.00 in0.0 mm 0.00 in0.0 mm
10:19 PM 14.9°F-9.5°C 5.2°F-14.9°C 65% 2.2 mph S3.5 kmh S 3.4 mph5.5 kmh 30.23 in1023.7 mb 0.00 in0.0 mm 0.00 in0.0 mm 0.00 in0.0 mm
10:24 PM 15.1°F-9.4°C 6.1°F-14.4°C 67% 2.7 mph SW4.3 kmh SW 4.3 mph6.9 kmh 30.22 in1023.4 mb 0.00 in0.0 mm 0.00 in0.0 mm 0.00 in0.0 mm
10:29 PM 15.1°F-9.4°C 5.4°F-14.8°C 65% 2.0 mph SSE3.2 kmh SSE 3.1 mph5.0 kmh 30.22 in1023.4 mb 0.00 in0.0 mm 0.00 in0.0 mm 0.00 in0.0 mm
10:34 PM 14.9°F-9.5°C 5.2°F-14.9°C 65% 2.0 mph S3.2 kmh S 2.9 mph4.7 kmh 30.22 in1023.4 mb 0.00 in0.0 mm 0.00 in0.0 mm 0.00 in0.0 mm
10:39 PM 14.9°F-9.5°C 5.2°F-14.9°C 65% 1.6 mph S2.6 kmh S 2.5 mph4.0 kmh 30.22 in1023.4 mb 0.00 in0.0 mm 0.00 in0.0 mm 0.00 in0.0 mm
10:44 PM 14.9°F-9.5°C 5.2°F-14.9°C 65% 2.0 mph S3.2 kmh S 3.6 mph5.8 kmh 30.22 in1023.4 mb 0.00 in0.0 mm 0.00 in0.0 mm 0.00 in0.0 mm
10:49 PM 15.1°F-9.4°C 5.4°F-14.8°C 65% 1.3 mph SSE2.1 kmh SSE 2.9 mph4.7 kmh 30.22 in1023.4 mb 0.00 in0.0 mm 0.00 in0.0 mm 0.00 in0.0 mm
10:54 PM 15.3°F-9.3°C 6.3°F-14.3°C 67% 2.2 mph S3.5 kmh S 5.6 mph9.0 kmh 30.22 in1023.4 mb 0.00 in0.0 mm 0.00 in0.0 mm 0.00 in0.0 mm
10:59 PM 15.3°F-9.3°C 5.5°F-14.7°C 65% 1.3 mph N2.1 kmh N 3.1 mph5.0 kmh 30.22 in1023.4 mb 0.00 in0.0 mm 0.00 in0.0 mm 0.00 in0.0 mm
11:04 PM 15.4°F-9.2°C 6.4°F-14.2°C 67% 1.6 mph SE2.6 kmh SE 2.5 mph4.0 kmh 30.22 in1023.4 mb 0.00 in0.0 mm 0.00 in0.0 mm 0.00 in0.0 mm
11:09 PM 15.6°F-9.1°C 6.6°F-14.1°C 67% 2.2 mph SSE3.5 kmh SSE 3.8 mph6.1 kmh 30.22 in1023.4 mb 0.00 in0.0 mm 0.00 in0.0 mm 0.00 in0.0 mm
11:14 PM 15.6°F-9.1°C 6.6°F-14.1°C 67% 1.6 mph S2.6 kmh S 3.6 mph5.8 kmh 30.22 in1023.4 mb 0.00 in0.0 mm 0.00 in0.0 mm 0.00 in0.0 mm
11:19 PM 15.6°F-9.1°C 6.6°F-14.1°C 67% 2.0 mph SSE3.2 kmh SSE 3.6 mph5.8 kmh 30.22 in1023.4 mb 0.00 in0.0 mm 0.00 in0.0 mm 0.00 in0.0 mm
11:24 PM 15.6°F-9.1°C 6.6°F-14.1°C 67% 2.0 mph SE3.2 kmh SE 4.7 mph7.6 kmh 30.22 in1023.4 mb 0.00 in0.0 mm 0.00 in0.0 mm 0.00 in0.0 mm
11:29 PM 15.6°F-9.1°C 6.6°F-14.1°C 67% 1.6 mph NW2.6 kmh NW 4.0 mph6.4 kmh 30.22 in1023.4 mb 0.00 in0.0 mm 0.00 in0.0 mm 0.00 in0.0 mm
11:34 PM 15.6°F-9.1°C 6.6°F-14.1°C 67% 1.3 mph SE2.1 kmh SE 2.7 mph4.3 kmh 30.22 in1023.4 mb 0.00 in0.0 mm 0.00 in0.0 mm 0.00 in0.0 mm
11:39 PM 15.6°F-9.1°C 6.6°F-14.1°C 67% 1.6 mph S2.6 kmh S 2.7 mph4.3 kmh 30.22 in1023.4 mb 0.00 in0.0 mm 0.00 in0.0 mm 0.00 in0.0 mm
11:44 PM 15.6°F-9.1°C 6.6°F-14.1°C 67% 1.8 mph S2.9 kmh S 3.6 mph5.8 kmh 30.21 in1023.0 mb 0.00 in0.0 mm 0.00 in0.0 mm 0.00 in0.0 mm
11:49 PM 15.6°F-9.1°C 6.6°F-14.1°C 67% 1.3 mph NNE2.1 kmh NNE 2.7 mph4.3 kmh 30.21 in1023.0 mb 0.00 in0.0 mm 0.00 in0.0 mm 0.00 in0.0 mm
11:54 PM 15.6°F-9.1°C 6.6°F-14.1°C 67% 1.6 mph ENE2.6 kmh ENE 3.6 mph5.8 kmh 30.21 in1023.0 mb 0.00 in0.0 mm 0.00 in0.0 mm 0.00 in0.0 mm
11:59 PM 15.6°F-9.1°C 6.6°F-14.1°C 67% 1.8 mph SE2.9 kmh SE 3.4 mph5.5 kmh 30.21 in1023.0 mb 0.00 in0.0 mm 0.00 in0.0 mm 0.00 in0.0 mm